Eagle County Regional Airport
KEGE : now visible

Airfield :











YOU CAN JOIN US ON...

 
LOGIN :

Register | Disclaimer

   EN    FR    IT 

 









Legend :    VFR   Marginal VFR   IFR   Intensive IFR   Very Intensive IFR
Visi :
Ceiling :
>= 8 km
>= 3000ft
5 to 8 km
1000 to 3000 ft
1500m to 5 km
500 to 1000 ft
800 to 1500m
200 to 500 ft
< 800m
< 200 ft
Symbols :   Thunderstorms  Fog  Heavy snow  Heavy precipitations  Wind > 20 kt






- Airport Elevation : 6548 ft
- IATA code : EGE


KEGE - Eagle County Regional

CURRENT METAR :
  • 230156Z AUTO 25005KT 10SM FEW038 BKN075 OVC100 06/02 A2988 RMK AO2 RAB02E44 PRESRR SLP116 T00610017 PNO $

EXPIRED METARs :
  • 230056Z 36004KT 10SM OVC070 06/03 A2985 RMK AO2 RAB08E38 SLP111 T00560028 PNO $
  • 222356Z 08005KT 10SM FEW035 SCT060 BKN070 06/01 A2983 RMK AO2 TSE14RAE30 SLP104 6//// T00610006 10117 20044 51017 PNO $
  • 222325Z 09007KT 10SM -RA SCT035 BKN046 OVC065 05/02 A2983 RMK AO2 TSE14 PNO $

TAF KEGE
Valid from the 23 at 00:00 until the 24 at 00:00 UTC


222337Z 2300/2324 09007KT P6SM -RA VCSH SCT035 BKN045 OVC070
FM230100 33008KT P6SM VCSH BKN070
FM230200 05007KT P6SM BKN080
FM231000 VRB03KT P6SM VCSH SCT100
FM231800 26007KT P6SM BKN070
KZDV FIR / North America



MET'MAP, your aeronautical weather chart ! - Copyright ORBIFLY December 2007 - Disclaimer

ORBIFLY MET'MAP TEAM :

Programming & Development : Alexandra Zaïnal
Concept & original design : Baudouin d'Aumeries
Assistance for programming : Marc-Olivier Méhu
Technical & hardware support : Manuel Goepfert

Contact : metmap@orbifly.com




SOURCES & CREDITS :

   NOAA       Earth
Advisory